Time;durP1;ratioP1;P1;durP2;ratioP2;P2;SDS_P1;SDS_P2;PMS_P1;PMS_P2;Temp;Humidity;BMP_temperature;BMP_pressure;BME280_temperature;BME280_humidity;BME280_pressure;Samples;Min_cycle;Max_cycle;Signal;HPM_P1;HPM_P2
2022/05/25 00:00:56;;;;;;;1.17;1.03;;;;;;;12.03;100.00;98738.75;5054563;28;20236;-83
2022/05/25 00:03:25;;;;;;;3.93;1.27;;;;;;;11.81;100.00;98741.38;5051939;28;20644;-83
2022/05/25 00:05:53;;;;;;;2.17;1.53;;;;;;;11.78;100.00;98750.38;5059742;28;20192;-83
2022/05/25 00:08:23;;;;;;;2.03;1.10;;;;;;;11.65;100.00;98753.09;5051805;28;20193;-84
2022/05/25 00:10:54;;;;;;;4.10;1.00;;;;;;;11.72;100.00;98743.72;5055549;28;20276;-83
2022/05/25 00:13:23;;;;;;;4.70;1.30;;;;;;;11.81;100.00;98746.69;5055091;28;20196;-83
2022/05/25 00:15:51;;;;;;;3.27;1.30;;;;;;;11.86;100.00;98747.16;5059171;28;20193;-83
2022/05/25 00:18:20;;;;;;;5.63;1.47;;;;;;;11.91;100.00;98755.63;5055546;28;20196;-84
2022/05/25 00:20:47;;;;;;;1.77;0.90;;;;;;;11.91;100.00;98759.13;5033155;28;20216;-84
2022/05/25 00:23:15;;;;;;;2.93;1.30;;;;;;;11.91;100.00;98756.47;5055034;28;20201;-84
2022/05/25 00:25:43;;;;;;;2.60;1.10;;;;;;;11.80;100.00;98763.56;5050360;28;20201;-84
2022/05/25 00:28:14;;;;;;;2.23;1.27;;;;;;;11.89;100.00;98758.41;5058480;28;20264;-84
2022/05/25 00:30:45;;;;;;;4.30;1.20;;;;;;;12.01;100.00;98762.78;5053639;28;20738;-84
2022/05/25 00:33:14;;;;;;;2.03;1.10;;;;;;;12.02;100.00;98758.31;5054566;28;20197;-84
2022/05/25 00:35:44;;;;;;;1.97;1.00;;;;;;;11.94;100.00;98758.03;5052163;28;20640;-83
2022/05/25 00:38:15;;;;;;;3.53;1.20;;;;;;;11.90;100.00;98762.75;5057678;28;20674;-84
2022/05/25 00:40:45;;;;;;;2.70;1.27;;;;;;;11.88;100.00;98756.72;5053307;28;20197;-84
2022/05/25 00:43:15;;;;;;;5.73;1.23;;;;;;;12.07;100.00;98760.63;5054666;28;20666;-84
2022/05/25 00:45:47;;;;;;;3.10;1.10;;;;;;;12.10;100.00;98761.22;5052725;28;20675;-84
2022/05/25 00:48:21;;;;;;;1.77;1.03;;;;;;;12.15;100.00;98756.41;5055599;28;20193;-83
2022/05/25 00:53:36;;;;;;;2.13;1.47;;;;;;;12.10;100.00;98755.06;5054881;28;20204;-83
2022/05/25 00:56:07;;;;;;;4.77;1.70;;;;;;;12.16;100.00;98763.44;5050102;28;20212;-84
2022/05/25 00:58:39;;;;;;;4.13;1.43;;;;;;;12.11;100.00;98751.44;5059672;28;20204;-84
2022/05/25 01:01:07;;;;;;;4.23;1.30;;;;;;;11.99;100.00;98759.41;5051674;28;20197;-84
2022/05/25 01:03:36;;;;;;;2.67;1.10;;;;;;;11.57;100.00;98763.41;5054495;28;20193;-84
2022/05/25 01:06:10;;;;;;;2.93;1.20;;;;;;;11.42;100.00;98762.78;5054922;28;20193;-84
2022/05/25 01:08:50;;;;;;;1.40;0.90;;;;;;;11.37;100.00;98762.25;5054461;28;20204;-83
2022/05/25 01:11:38;;;;;;;3.93;1.20;;;;;;;11.43;100.00;98758.31;5054347;28;20268;-84
2022/05/25 01:14:27;;;;;;;1.90;1.30;;;;;;;11.43;100.00;98768.91;5054165;28;20277;-83
2022/05/25 01:17:05;;;;;;;1.90;1.00;;;;;;;11.53;100.00;98769.94;5051474;28;20388;-84
2022/05/25 01:19:56;;;;;;;2.63;1.20;;;;;;;11.50;100.00;98769.31;5051909;28;20679;-83
2022/05/25 01:22:48;;;;;;;3.30;1.30;;;;;;;11.60;100.00;98767.69;5053530;28;20205;-84
2022/05/25 01:25:39;;;;;;;2.60;1.73;;;;;;;11.48;100.00;98766.75;5053154;28;20284;-84
2022/05/25 01:28:16;;;;;;;1.97;1.30;;;;;;;11.35;100.00;98773.94;5062209;27;20193;-84
2022/05/25 01:30:50;;;;;;;2.50;1.07;;;;;;;11.38;100.00;98774.53;5053723;28;20216;-83
2022/05/25 01:33:27;;;;;;;2.10;1.30;;;;;;;11.26;100.00;98775.44;5054016;28;20256;-84
2022/05/25 01:36:02;;;;;;;2.43;1.27;;;;;;;11.32;100.00;98782.97;5052674;28;20684;-84
2022/05/25 01:38:36;;;;;;;1.73;1.13;;;;;;;11.42;100.00;98789.28;5052050;28;20227;-83
2022/05/25 01:41:13;;;;;;;1.40;1.20;;;;;;;11.38;100.00;98777.19;5053785;28;20192;-83
2022/05/25 01:43:46;;;;;;;5.93;1.43;;;;;;;11.47;100.00;98776.53;5067950;28;20208;-83
2022/05/25 01:46:25;;;;;;;5.73;1.40;;;;;;;11.43;100.00;98782.19;5051732;28;20200;-83
2022/05/25 01:48:56;;;;;;;4.43;1.53;;;;;;;11.61;100.00;98783.47;5051533;28;20193;-83
2022/05/25 01:51:27;;;;;;;4.33;1.30;;;;;;;11.64;100.00;98783.25;5052842;28;20196;-84
2022/05/25 01:54:00;;;;;;;2.97;1.40;;;;;;;11.59;100.00;98806.63;5050907;28;20189;-84
2022/05/25 01:56:33;;;;;;;3.63;1.10;;;;;;;11.49;100.00;98802.97;5053215;28;20195;-84
2022/05/25 01:59:05;;;;;;;3.63;1.30;;;;;;;11.67;100.00;98800.72;5052856;28;20280;-84
2022/05/25 02:01:34;;;;;;;3.53;1.20;;;;;;;11.23;100.00;98801.34;5055784;28;20201;-84
2022/05/25 02:04:20;;;;;;;2.10;1.47;;;;;;;11.36;100.00;98797.69;5051855;28;20205;-83
2022/05/25 02:07:04;;;;;;;2.43;1.40;;;;;;;11.40;100.00;98801.81;5053357;28;20270;-84
2022/05/25 02:09:47;;;;;;;6.00;1.40;;;;;;;11.32;100.00;98801.53;5061405;27;20201;-84
2022/05/25 02:12:28;;;;;;;4.27;1.30;;;;;;;11.42;100.00;98791.09;5053281;28;20201;-84
2022/05/25 02:15:01;;;;;;;2.30;1.40;;;;;;;11.44;100.00;98794.47;5056125;28;20205;-84
2022/05/25 02:17:39;;;;;;;3.40;1.30;;;;;;;11.44;100.00;98799.78;5054286;28;20300;-84
2022/05/25 02:20:11;;;;;;;4.53;1.50;;;;;;;11.45;100.00;98799.66;5053419;28;20388;-84
2022/05/25 02:22:44;;;;;;;4.67;1.50;;;;;;;11.41;100.00;98800.84;5055428;28;20207;-84
2022/05/25 02:25:20;;;;;;;1.53;1.20;;;;;;;11.55;100.00;98810.44;5053100;28;20196;-84
2022/05/25 02:27:52;;;;;;;3.50;1.30;;;;;;;11.10;100.00;98812.84;5045671;28;20271;-84
2022/05/25 02:30:24;;;;;;;4.20;1.30;;;;;;;11.02;100.00;98804.59;5053837;28;20274;-83
2022/05/25 02:32:59;;;;;;;1.90;1.30;;;;;;;11.22;100.00;98808.47;5055689;28;20208;-84
2022/05/25 02:35:31;;;;;;;1.90;1.20;;;;;;;11.12;100.00;98815.38;5049948;28;20276;-84
2022/05/25 02:38:02;;;;;;;7.30;1.67;;;;;;;11.22;100.00;98818.22;5052923;28;20217;-84
2022/05/25 02:40:33;;;;;;;4.00;1.67;;;;;;;11.00;100.00;98814.47;5054265;28;20207;-83
2022/05/25 02:43:01;;;;;;;2.63;1.40;;;;;;;11.00;100.00;98817.09;5056874;28;20211;-84
2022/05/25 02:45:30;;;;;;;5.37;1.40;;;;;;;10.96;100.00;98820.91;5053000;28;20220;-84
2022/05/25 02:48:01;;;;;;;3.83;1.30;;;;;;;10.81;100.00;98816.72;5052989;28;20194;-83
2022/05/25 02:50:29;;;;;;;2.43;1.30;;;;;;;10.76;100.00;98824.13;5036378;28;20200;-84
2022/05/25 02:52:57;;;;;;;2.97;1.70;;;;;;;10.73;100.00;98821.69;5052605;28;20215;-84
2022/05/25 02:55:26;;;;;;;3.90;1.40;;;;;;;10.75;100.00;98831.22;5052580;28;20200;-83
2022/05/25 02:57:58;;;;;;;1.77;1.50;;;;;;;10.83;100.00;98820.94;5057563;28;20216;-84
2022/05/25 03:00:27;;;;;;;4.83;1.57;;;;;;;10.87;100.00;98817.09;5054348;28;20319;-84
2022/05/25 03:02:56;;;;;;;5.23;1.23;;;;;;;10.68;100.00;98827.31;5052388;28;20201;-84
2022/05/25 03:05:26;;;;;;;3.73;1.67;;;;;;;10.59;100.00;98828.78;5056206;28;20327;-84
2022/05/25 03:07:55;;;;;;;4.47;1.50;;;;;;;10.50;100.00;98836.53;5052527;28;20276;-84
2022/05/25 03:10:23;;;;;;;3.57;1.20;;;;;;;10.32;100.00;98836.81;5052729;28;20201;-84
2022/05/25 03:12:51;;;;;;;3.20;1.20;;;;;;;10.37;100.00;98843.63;5050754;28;20220;-84
2022/05/25 03:15:21;;;;;;;2.53;1.23;;;;;;;10.38;100.00;98840.88;5057074;28;20201;-84
2022/05/25 03:17:49;;;;;;;3.70;1.70;;;;;;;10.41;100.00;98845.94;5054963;28;20221;-84
2022/05/25 03:20:18;;;;;;;4.70;1.40;;;;;;;10.18;100.00;98844.00;5053158;28;20189;-85
2022/05/25 03:22:50;;;;;;;1.53;1.27;;;;;;;10.22;100.00;98850.78;5056698;28;20204;-84
2022/05/25 03:25:18;;;;;;;2.67;1.50;;;;;;;10.39;100.00;98853.16;5057365;28;20252;-83
2022/05/25 03:27:46;;;;;;;2.33;1.40;;;;;;;10.31;100.00;98855.47;5056342;28;20208;-84
2022/05/25 03:30:19;;;;;;;1.50;1.40;;;;;;;10.42;100.00;98854.72;5056241;28;20221;-84
2022/05/25 03:32:48;;;;;;;4.30;1.40;;;;;;;10.64;100.00;98854.13;5056388;28;20621;-84
2022/05/25 03:35:17;;;;;;;1.60;1.20;;;;;;;10.69;100.00;98859.94;5054983;28;20203;-83
2022/05/25 03:37:45;;;;;;;4.30;1.50;;;;;;;10.70;100.00;98864.28;5054222;28;20217;-84
2022/05/25 03:40:16;;;;;;;4.73;1.80;;;;;;;10.46;100.00;98859.72;5057113;28;20201;-84
2022/05/25 03:42:48;;;;;;;5.07;1.60;;;;;;;10.38;100.00;98861.19;5056571;28;20644;-84
2022/05/25 03:45:17;;;;;;;4.07;1.57;;;;;;;10.41;100.00;98875.06;5056224;28;20201;-84
2022/05/25 03:47:49;;;;;;;4.40;1.53;;;;;;;10.40;100.00;98864.59;5055379;28;20243;-84
2022/05/25 03:50:18;;;;;;;3.10;1.70;;;;;;;10.43;100.00;98864.41;5050229;28;20210;-85
2022/05/25 03:52:46;;;;;;;2.27;1.30;;;;;;;10.51;100.00;98870.00;5055004;28;20197;-84
2022/05/25 03:55:17;;;;;;;2.23;1.40;;;;;;;10.47;100.00;98877.31;5061762;28;20669;-84
2022/05/25 03:57:45;;;;;;;2.53;1.40;;;;;;;10.53;100.00;98876.91;5055733;28;20253;-84
2022/05/25 04:00:14;;;;;;;1.40;1.30;;;;;;;10.57;100.00;98882.81;5053037;28;20208;-84
2022/05/25 04:02:45;;;;;;;1.97;1.53;;;;;;;10.55;100.00;98885.59;5053502;28;20208;-84
2022/05/25 04:05:13;;;;;;;1.23;1.13;;;;;;;10.39;100.00;98887.56;5059275;28;20204;-84
2022/05/25 04:07:43;;;;;;;3.67;1.60;;;;;;;10.28;100.00;98893.59;5055794;28;20204;-83
2022/05/25 04:10:16;;;;;;;2.73;1.30;;;;;;;10.39;100.00;98897.31;5055882;28;20193;-84
2022/05/25 04:12:47;;;;;;;4.90;1.70;;;;;;;10.15;100.00;98895.34;5055526;28;20201;-84
2022/05/25 04:15:17;;;;;;;3.07;1.50;;;;;;;10.37;100.00;98896.56;5060746;28;20250;-83
2022/05/25 04:17:45;;;;;;;3.67;1.60;;;;;;;10.44;100.00;98893.41;5052370;28;20428;-84
2022/05/25 04:20:15;;;;;;;3.63;1.37;;;;;;;10.47;100.00;98889.69;5054815;28;20250;-84
2022/05/25 04:22:43;;;;;;;1.67;1.40;;;;;;;10.50;100.00;98890.31;5056697;28;20208;-84
2022/05/25 04:25:15;;;;;;;3.07;1.20;;;;;;;10.68;100.00;98882.09;5058551;28;20228;-84
2022/05/25 04:27:47;;;;;;;2.50;1.40;;;;;;;10.60;100.00;98882.59;5062067;28;20225;-84
2022/05/25 04:30:17;;;;;;;4.43;1.33;;;;;;;10.73;100.00;98886.13;5058549;28;20225;-85
2022/05/25 04:32:45;;;;;;;3.03;1.40;;;;;;;10.68;100.00;98890.03;5058723;28;20201;-84
2022/05/25 04:35:15;;;;;;;2.50;1.50;;;;;;;10.63;100.00;98887.72;5065094;27;20197;-84
2022/05/25 04:37:56;;;;;;;2.53;1.80;;;;;;;10.79;100.00;98895.44;5053956;28;20212;-85
2022/05/25 04:40:29;;;;;;;2.30;1.50;;;;;;;10.85;100.00;98895.03;5053467;28;20208;-84
2022/05/25 04:43:01;;;;;;;3.87;1.63;;;;;;;10.53;100.00;98903.38;5055038;28;20200;-84
2022/05/25 04:45:31;;;;;;;5.73;1.63;;;;;;;10.58;100.00;98905.69;5060335;28;20209;-84
2022/05/25 04:48:02;;;;;;;3.27;1.83;;;;;;;10.63;100.00;98916.00;5059287;28;20193;-84
2022/05/25 04:50:35;;;;;;;4.53;1.80;;;;;;;10.69;100.00;98916.41;5058067;28;20201;-83
2022/05/25 04:53:04;;;;;;;4.50;1.50;;;;;;;10.75;100.00;98921.28;5057699;28;20197;-84
2022/05/25 04:58:24;;;;;;;3.03;1.80;;;;;;;10.91;100.00;98926.41;5054615;28;20735;-84
2022/05/25 05:00:53;;;;;;;5.53;1.70;;;;;;;11.00;100.00;98931.06;5054478;28;20287;-84
2022/05/25 05:03:26;;;;;;;2.70;1.70;;;;;;;11.06;100.00;98937.72;5054842;28;20192;-84
2022/05/25 05:05:56;;;;;;;3.63;1.93;;;;;;;11.29;100.00;98930.81;5050693;28;20189;-83
2022/05/25 05:08:26;;;;;;;1.83;1.50;;;;;;;11.40;100.00;98941.53;5062724;27;20201;-84
2022/05/25 05:10:58;;;;;;;4.00;1.63;;;;;;;11.50;100.00;98947.03;5048362;28;20189;-83
2022/05/25 05:13:27;;;;;;;3.07;1.50;;;;;;;11.70;100.00;98941.97;5052753;28;20193;-84
2022/05/25 05:15:56;;;;;;;1.87;1.60;;;;;;;11.71;100.00;98940.16;5003221;28;20283;-84
2022/05/25 05:18:24;;;;;;;1.93;1.43;;;;;;;11.69;100.00;98942.09;5044283;28;20243;-84
2022/05/25 05:20:53;;;;;;;3.37;1.80;;;;;;;11.77;100.00;98939.72;5044221;28;20201;-84
2022/05/25 05:23:21;;;;;;;2.80;1.87;;;;;;;11.98;100.00;98943.50;5044550;28;20310;-84
2022/05/25 05:25:49;;;;;;;2.63;1.60;;;;;;;11.97;100.00;98943.63;5049601;28;20267;-84
2022/05/25 05:28:19;;;;;;;3.30;1.43;;;;;;;12.02;100.00;98944.13;5051991;28;20276;-84
2022/05/25 05:30:52;;;;;;;5.77;1.80;;;;;;;12.06;100.00;98953.53;5051866;28;20217;-85
2022/05/25 05:33:21;;;;;;;1.80;1.70;;;;;;;12.33;100.00;98945.34;5052333;28;20200;-84
2022/05/25 05:35:53;;;;;;;2.63;1.70;;;;;;;12.48;100.00;98951.34;5050132;28;20680;-83
2022/05/25 05:38:23;;;;;;;4.67;1.97;;;;;;;12.51;100.00;98954.59;5046638;28;20185;-84
2022/05/25 05:40:53;;;;;;;2.73;1.70;;;;;;;12.59;100.00;98957.53;5052733;28;20260;-84
2022/05/25 05:43:22;;;;;;;2.93;1.60;;;;;;;12.71;100.00;98955.75;5059525;28;20205;-84
2022/05/25 05:45:55;;;;;;;3.30;1.80;;;;;;;12.78;100.00;98956.97;5051410;28;20195;-84
2022/05/25 05:48:26;;;;;;;4.47;1.97;;;;;;;12.74;100.00;98959.97;5058566;28;20196;-84
2022/05/25 05:50:56;;;;;;;4.90;1.80;;;;;;;12.88;100.00;98965.94;5016580;28;20193;-84
2022/05/25 05:53:27;;;;;;;3.70;1.90;;;;;;;12.89;100.00;98967.63;5055408;28;20189;-84
2022/05/25 05:55:57;;;;;;;2.53;1.90;;;;;;;13.05;100.00;98966.47;5053643;28;20204;-84
2022/05/25 05:58:26;;;;;;;4.87;2.10;;;;;;;13.09;100.00;98968.75;5056595;28;20193;-84
2022/05/25 06:00:56;;;;;;;3.23;2.10;;;;;;;13.12;100.00;98962.34;5054629;28;20213;-84
2022/05/25 06:03:24;;;;;;;2.67;1.80;;;;;;;13.20;100.00;98964.44;5053336;28;20615;-84
2022/05/25 06:05:52;;;;;;;3.50;1.70;;;;;;;13.33;100.00;98974.03;5053552;28;20205;-84
2022/05/25 06:08:23;;;;;;;2.97;2.17;;;;;;;13.48;100.00;98974.63;5054250;28;20197;-84
2022/05/25 06:10:51;;;;;;;2.43;1.57;;;;;;;13.34;100.00;98978.38;5058504;28;20231;-84
2022/05/25 06:13:22;;;;;;;3.97;1.70;;;;;;;13.42;100.00;98983.94;5050496;28;20193;-84
2022/05/25 06:21:26;;;;;;;4.10;1.30;;;;;;;13.77;100.00;98996.25;5052375;28;20201;-84
2022/05/25 06:23:56;;;;;;;5.40;1.87;;;;;;;13.73;100.00;98994.84;5053089;28;20203;-84
2022/05/25 06:26:27;;;;;;;2.10;1.40;;;;;;;13.73;100.00;98993.00;5052958;28;20197;-84
2022/05/25 06:28:56;;;;;;;1.73;1.40;;;;;;;13.74;100.00;98985.88;5048862;28;20216;-84
2022/05/25 06:31:24;;;;;;;5.07;1.40;;;;;;;13.55;100.00;98993.63;5049688;28;20193;-82
2022/05/25 06:33:55;;;;;;;2.70;1.23;;;;;;;13.78;100.00;98997.13;5051559;28;20193;-83
2022/05/25 06:36:25;;;;;;;4.73;1.67;;;;;;;13.41;100.00;98995.56;5057400;28;20209;-84
2022/05/25 06:38:55;;;;;;;2.90;1.50;;;;;;;13.46;100.00;98995.19;5053088;28;20664;-83
2022/05/25 06:41:23;;;;;;;4.40;1.73;;;;;;;13.48;100.00;98990.59;5054898;28;20220;-83
2022/05/25 06:43:52;;;;;;;3.63;1.40;;;;;;;13.62;100.00;98995.69;5055481;28;20197;-83
2022/05/25 06:46:21;;;;;;;4.00;1.30;;;;;;;13.67;100.00;98996.16;5055083;28;20215;-83
2022/05/25 06:48:52;;;;;;;3.10;1.40;;;;;;;13.64;100.00;98990.22;5055653;28;20219;-83
2022/05/25 06:51:24;;;;;;;3.33;1.40;;;;;;;14.03;100.00;98989.69;5059067;28;20192;-83
2022/05/25 06:53:53;;;;;;;4.80;1.30;;;;;;;14.17;100.00;98993.91;5057296;28;20197;-84
2022/05/25 06:56:24;;;;;;;2.83;1.40;;;;;;;14.32;100.00;99002.47;5057076;28;20203;-83
2022/05/25 06:58:53;;;;;;;2.53;1.40;;;;;;;14.38;100.00;99003.75;5057529;28;20238;-83
2022/05/25 07:01:23;;;;;;;4.60;1.50;;;;;;;14.51;100.00;99005.34;5056628;28;20223;-83
2022/05/25 07:03:52;;;;;;;2.03;1.30;;;;;;;14.48;100.00;99008.28;5055172;28;20224;-84
2022/05/25 07:06:24;;;;;;;2.30;1.50;;;;;;;14.62;100.00;99006.28;5051981;28;20193;-83
2022/05/25 07:08:53;;;;;;;2.03;1.40;;;;;;;14.14;100.00;99006.63;5061589;28;20216;-83
2022/05/25 07:11:23;;;;;;;2.07;1.40;;;;;;;14.28;100.00;99015.22;5057302;28;20200;-83
2022/05/25 07:13:52;;;;;;;2.27;1.40;;;;;;;14.66;100.00;99016.53;5056208;28;20204;-84
2022/05/25 07:16:22;;;;;;;2.00;1.50;;;;;;;14.85;100.00;99014.03;5056492;28;20208;-83
2022/05/25 07:18:51;;;;;;;3.30;1.57;;;;;;;14.75;100.00;99009.59;5056829;28;20205;-84
2022/05/25 07:21:25;;;;;;;3.37;1.50;;;;;;;14.93;100.00;99012.53;5057433;28;20260;-83
2022/05/25 07:23:55;;;;;;;2.87;1.40;;;;;;;14.68;100.00;99024.44;5057058;28;20193;-83
2022/05/25 07:26:25;;;;;;;2.30;1.40;;;;;;;14.97;100.00;99014.00;5059234;28;20632;-83
2022/05/25 07:28:54;;;;;;;2.73;1.60;;;;;;;15.21;100.00;99016.38;5058415;28;20228;-84
2022/05/25 07:31:26;;;;;;;2.67;1.50;;;;;;;14.91;100.00;99007.34;5061467;28;20224;-83
2022/05/25 07:34:02;;;;;;;2.10;1.30;;;;;;;14.91;100.00;99012.69;5053532;28;20684;-83
2022/05/25 07:36:32;;;;;;;4.23;1.83;;;;;;;15.06;100.00;99014.06;5054866;28;20193;-83
2022/05/25 07:39:04;;;;;;;5.77;1.47;;;;;;;15.39;100.00;99007.66;5057582;28;20186;-83
2022/05/25 07:41:35;;;;;;;3.57;1.40;;;;;;;15.63;100.00;99011.88;5056018;28;20213;-83
2022/05/25 07:44:04;;;;;;;3.50;1.70;;;;;;;15.45;100.00;99014.31;5053401;28;20238;-84
2022/05/25 07:46:32;;;;;;;3.03;1.63;;;;;;;15.76;100.00;99011.66;5054317;28;20201;-84
2022/05/25 07:49:00;;;;;;;3.50;1.73;;;;;;;15.80;100.00;99015.75;5055560;28;20280;-84
2022/05/25 07:51:29;;;;;;;2.40;1.57;;;;;;;16.03;100.00;99023.44;5053448;28;20207;-83
2022/05/25 07:54:00;;;;;;;3.03;1.40;;;;;;;15.94;100.00;99020.72;5053869;28;20197;-83
2022/05/25 07:56:31;;;;;;;2.77;1.67;;;;;;;15.80;100.00;99019.25;5055535;28;20197;-83
2022/05/25 07:58:59;;;;;;;7.97;1.90;;;;;;;15.66;100.00;99028.47;5054995;28;20193;-84
2022/05/25 08:07:07;;;;;;;5.07;1.97;;;;;;;15.51;100.00;99035.09;5058141;28;20208;-83
2022/05/25 08:09:38;;;;;;;5.73;2.20;;;;;;;15.92;100.00;99028.88;5049949;28;20221;-83
2022/05/25 08:12:09;;;;;;;3.97;2.30;;;;;;;15.44;100.00;99032.13;5056401;28;20201;-83
2022/05/25 08:14:37;;;;;;;5.10;2.20;;;;;;;16.06;100.00;99035.66;5056175;28;20216;-83
2022/05/25 08:17:07;;;;;;;2.70;1.90;;;;;;;16.18;100.00;99028.38;5033798;28;20281;-85
2022/05/25 08:19:38;;;;;;;3.53;2.10;;;;;;;15.79;100.00;99020.22;5029535;28;20194;-82
2022/05/25 08:22:09;;;;;;;5.40;2.27;;;;;;;15.94;100.00;99024.25;5030923;28;20271;-83
2022/05/25 08:24:39;;;;;;;4.37;1.97;;;;;;;16.02;100.00;99032.44;5034194;28;20209;-82
2022/05/25 08:27:07;;;;;;;3.47;1.73;;;;;;;15.83;100.00;99028.84;4992373;28;20281;-84
2022/05/25 08:29:36;;;;;;;5.60;1.93;;;;;;;16.34;100.00;99022.50;4994115;28;20258;-83
2022/05/25 08:32:05;;;;;;;2.63;1.77;;;;;;;16.14;100.00;99017.13;4990956;28;20206;-83
2022/05/25 08:34:34;;;;;;;2.00;1.60;;;;;;;16.22;100.00;99016.44;5009974;28;20678;-83
2022/05/25 08:37:10;;;;;;;6.60;1.70;;;;;;;16.13;100.00;99023.47;5009329;28;20220;-83
2022/05/25 08:39:40;;;;;;;6.33;1.70;;;;;;;16.84;100.00;99016.09;5010196;28;20195;-83
2022/05/25 08:42:13;;;;;;;6.17;2.00;;;;;;;16.49;100.00;99024.63;4993579;28;20250;-83
2022/05/25 08:44:43;;;;;;;3.93;1.83;;;;;;;16.69;100.00;99019.31;5000381;28;20206;-83
2022/05/25 08:47:14;;;;;;;3.80;1.60;;;;;;;17.16;100.00;99017.63;5032978;28;20202;-83
2022/05/25 08:49:46;;;;;;;3.67;1.90;;;;;;;16.60;100.00;99016.50;5026230;28;20205;-83
2022/05/25 08:52:24;;;;;;;2.90;1.40;;;;;;;16.92;100.00;99006.53;5034527;28;20245;-86
2022/05/25 08:54:54;;;;;;;3.67;1.60;;;;;;;17.29;100.00;99006.63;5030657;28;20189;-83
2022/05/25 08:57:28;;;;;;;5.80;2.00;;;;;;;17.02;100.00;99007.38;5031381;28;20277;-83
2022/05/25 09:00:02;;;;;;;3.90;1.70;;;;;;;17.60;100.00;99013.44;5035774;28;20227;-82
2022/05/25 09:02:41;;;;;;;2.70;1.47;;;;;;;17.96;100.00;99008.25;5051747;28;20224;-82
2022/05/25 09:05:18;;;;;;;3.60;1.40;;;;;;;18.02;100.00;99018.34;5048312;28;20239;-83
2022/05/25 09:07:56;;;;;;;3.50;1.50;;;;;;;17.71;100.00;99015.09;5054879;28;20212;-83
2022/05/25 09:10:29;;;;;;;3.63;1.53;;;;;;;17.50;100.00;99028.69;5055212;28;20201;-83
2022/05/25 09:13:05;;;;;;;3.57;1.67;;;;;;;16.95;100.00;99023.13;5053813;28;20280;-83
2022/05/25 09:16:15;;;;;;;2.60;1.43;;;;;;;16.69;100.00;99033.53;5059022;28;20212;-83
2022/05/25 09:18:33;;;;;;;3.63;1.50;;;;;;;17.02;100.00;99031.44;5057946;28;20288;-83
2022/05/25 09:21:04;;;;;;;3.13;1.50;;;;;;;17.48;100.00;99033.34;5056059;28;20217;-83
2022/05/25 09:23:33;;;;;;;3.60;1.40;;;;;;;17.85;100.00;99032.53;5058182;28;20197;-83
2022/05/25 09:26:03;;;;;;;4.20;1.30;;;;;;;17.70;100.00;99038.38;5058286;28;20204;-83
2022/05/25 09:28:35;;;;;;;3.07;1.10;;;;;;;17.82;100.00;99049.75;5056404;28;20396;-83
2022/05/25 09:31:04;;;;;;;3.63;1.20;;;;;;;17.56;100.00;99036.13;5064522;28;20193;-83
2022/05/25 09:33:37;;;;;;;2.43;1.10;;;;;;;17.21;100.00;99046.66;5061678;28;20203;-83
2022/05/25 09:36:09;;;;;;;3.37;1.00;;;;;;;17.48;100.00;99035.19;5053774;28;20201;-83
2022/05/25 09:38:45;;;;;;;2.03;1.00;;;;;;;17.37;100.00;99041.53;5053474;28;20261;-83
2022/05/25 09:41:20;;;;;;;4.37;0.87;;;;;;;17.58;100.00;99049.38;5055596;28;20219;-84
2022/05/25 09:43:54;;;;;;;1.63;0.80;;;;;;;17.17;100.00;99046.91;5054613;28;20203;-85
2022/05/25 09:46:25;;;;;;;2.27;0.87;;;;;;;17.20;100.00;99048.47;5057889;28;20257;-84
2022/05/25 09:48:58;;;;;;;2.30;0.80;;;;;;;17.44;100.00;99035.44;5069661;28;20192;-85
2022/05/25 09:51:34;;;;;;;2.10;0.87;;;;;;;17.65;100.00;99031.72;5064927;28;20271;-85
2022/05/25 09:54:12;;;;;;;2.47;0.90;;;;;;;17.56;100.00;99037.94;5019788;28;20200;-85
2022/05/25 09:56:46;;;;;;;1.07;0.80;;;;;;;17.85;100.00;99038.72;5072180;28;20192;-83
2022/05/25 09:59:21;;;;;;;3.67;0.80;;;;;;;17.48;100.00;99037.88;5067607;28;20227;-85
2022/05/25 10:01:52;;;;;;;1.90;0.90;;;;;;;18.28;100.00;99040.78;5066857;28;20279;-83
2022/05/25 10:04:37;;;;;;;2.33;0.77;;;;;;;18.07;98.37;99040.22;5064834;28;20215;-83
2022/05/25 10:07:17;;;;;;;2.07;0.83;;;;;;;18.35;100.00;99029.47;5059193;28;20213;-83
2022/05/25 10:09:50;;;;;;;1.90;1.00;;;;;;;18.76;100.00;99023.56;5054047;28;20231;-83
2022/05/25 10:12:29;;;;;;;1.77;0.70;;;;;;;18.23;95.12;99036.84;5054888;28;20232;-83
2022/05/25 10:15:00;;;;;;;1.73;0.80;;;;;;;19.11;95.62;99038.81;5054858;28;20275;-83
2022/05/25 10:17:36;;;;;;;2.30;0.90;;;;;;;18.65;94.03;99039.88;5056005;28;20204;-83
2022/05/25 10:20:23;;;;;;;1.40;1.00;;;;;;;18.74;94.66;99035.44;5052816;28;20197;-87
2022/05/25 10:23:00;;;;;;;1.93;0.90;;;;;;;18.95;89.13;99041.34;5052873;28;20687;-83
2022/05/25 10:25:30;;;;;;;2.27;0.60;;;;;;;19.56;85.93;99026.22;5052984;28;20275;-84
2022/05/25 10:28:01;;;;;;;1.60;0.80;;;;;;;19.69;85.74;99024.78;5053406;28;20238;-83
2022/05/25 10:39:24;;;;;;;2.80;0.70;;;;;;;19.17;90.79;99026.56;5068932;28;20302;-83
2022/05/25 10:42:01;;;;;;;2.23;1.33;;;;;;;18.99;93.33;99028.44;5065859;28;20292;-86
2022/05/25 10:44:39;;;;;;;2.50;1.27;;;;;;;18.37;90.15;99022.13;5071510;28;20227;-85
2022/05/25 10:47:20;;;;;;;1.30;0.90;;;;;;;18.71;85.17;99028.53;5064335;28;20227;-85
2022/05/25 10:49:49;;;;;;;2.33;1.00;;;;;;;18.68;84.01;99020.78;5051232;28;20204;-84
2022/05/25 10:52:28;;;;;;;1.03;0.70;;;;;;;18.79;81.75;99022.41;5053680;28;20193;-85
2022/05/25 10:54:57;;;;;;;1.03;0.60;;;;;;;19.78;82.54;99009.53;5053005;28;20296;-84
2022/05/25 10:57:46;;;;;;;3.37;0.80;;;;;;;19.92;82.04;99017.00;5052216;28;20197;-83
2022/05/25 11:00:21;;;;;;;1.73;0.90;;;;;;;20.53;90.32;99007.81;5051878;28;20197;-82
2022/05/25 11:03:20;;;;;;;2.63;0.70;;;;;;;21.27;82.13;99008.72;5053815;28;20223;-83
2022/05/25 11:05:57;;;;;;;4.13;0.90;;;;;;;20.72;84.59;99009.34;5051055;28;20204;-84
2022/05/25 11:08:47;;;;;;;3.50;0.73;;;;;;;20.35;87.77;99012.44;5050877;28;20223;-83
2022/05/25 11:11:23;;;;;;;5.10;1.00;;;;;;;20.46;85.37;99009.50;5056937;28;20644;-83
2022/05/25 11:14:05;;;;;;;3.10;0.70;;;;;;;18.65;86.98;99009.53;5050669;28;20201;-83
2022/05/25 11:16:55;;;;;;;2.07;0.70;;;;;;;19.18;89.65;99017.53;5054138;28;20201;-84
2022/05/25 11:19:40;;;;;;;1.60;0.70;;;;;;;20.11;77.64;99007.84;5053460;28;20204;-84
2022/05/25 11:22:26;;;;;;;1.63;0.50;;;;;;;20.82;68.50;99015.41;5054074;28;20300;-83
2022/05/25 11:25:18;;;;;;;2.37;0.57;;;;;;;20.64;69.85;99014.72;5054018;28;20205;-86
2022/05/25 11:28:05;;;;;;;0.90;0.60;;;;;;;19.98;75.76;99018.22;5054672;28;20197;-82
2022/05/25 11:30:40;;;;;;;1.67;0.70;;;;;;;20.27;73.84;99028.59;5053328;28;20244;-83
2022/05/25 11:33:32;;;;;;;2.50;0.80;;;;;;;19.82;73.26;99020.81;5030370;28;20247;-83
2022/05/25 11:36:39;;;;;;;2.80;0.77;;;;;;;19.02;77.65;99031.69;5034873;28;20205;-82
2022/05/25 11:39:16;;;;;;;0.97;0.57;;;;;;;20.17;72.05;99009.88;5031781;28;20189;-83
2022/05/25 11:41:55;;;;;;;1.50;0.60;;;;;;;19.85;72.36;99017.81;5035882;28;20198;-83
2022/05/25 11:44:52;;;;;;;1.17;0.60;;;;;;;19.23;68.54;99004.47;5030764;28;20200;-84
2022/05/25 11:47:44;;;;;;;3.50;0.80;;;;;;;18.97;71.58;99025.91;5029986;28;20198;-86
2022/05/25 11:50:42;;;;;;;1.20;0.60;;;;;;;19.61;71.23;99027.44;5031970;28;20225;-83
2022/05/25 11:53:26;;;;;;;0.40;0.40;;;;;;;19.93;68.59;99016.00;5056816;28;20250;-83
2022/05/25 11:56:08;;;;;;;1.50;0.60;;;;;;;20.13;68.74;99018.44;5061698;28;20193;-84
2022/05/25 11:58:52;;;;;;;1.90;1.00;;;;;;;20.10;63.04;99008.84;5058024;28;20791;-84
2022/05/25 12:01:31;;;;;;;2.57;0.60;;;;;;;20.69;62.83;99009.69;5056224;28;20189;-83
2022/05/25 12:04:38;;;;;;;3.47;0.70;;;;;;;20.16;58.32;99012.72;5059692;28;20212;-83
2022/05/25 12:07:24;;;;;;;0.87;0.63;;;;;;;21.11;58.37;99006.00;5052430;28;20600;-82
2022/05/25 12:10:19;;;;;;;1.37;0.50;;;;;;;20.90;56.17;99003.81;5077207;28;20203;-85
2022/05/25 12:12:54;;;;;;;1.70;0.53;;;;;;;20.22;54.85;99001.31;5090565;28;20196;-84
2022/05/25 12:15:26;;;;;;;0.50;0.50;;;;;;;20.57;54.64;99006.50;5093954;28;20260;-82
2022/05/25 12:18:15;;;;;;;0.60;0.50;;;;;;;19.95;51.95;99019.34;5092982;28;20211;-84
2022/05/25 12:20:49;;;;;;;2.17;0.60;;;;;;;20.72;56.18;99003.13;5086477;28;20282;-82